Flugplatz Nördlingen (EDNO)

Hier findest Du alle Informationen zum Flugplatz Nördlingen (EDNO).

Informationen für Piloten zum Flugplatz Nördlingen

Hier findest Du alle relevanten Informationen, die Du als Pilot benötigst, um Nördlingen anzufliegen.

Flugplatz: Nördlingen ICAO-Code: EDNO
Frequenz Turm: 133,080 Mhz GAFOR Gebiet: 56
Frequenz Ground: 133,080 Mhz Mogas: ja
Platzrunde: NW 2100 ft Landegebühr: 6 € €
Platzhöhe: - Sunrise: 03:59 Uhr UTC
Pisten: 04/22 - 750 m x 15 m, ASPH Sunset: 18:48 Uhr UTC

Mitglieder, die in Nördlingen fliegen

Flugwetter am Flugplatz Nördlingen

Die METAR Information stammen aus EDMA (58.78 km entfernt).

METAR Code:
2022/07/04 04:20
EDMA 040420Z AUTO 06005KT 9999 BKN100/// BKN180/// 16/16 Q1019

Temperatur: 24,2 °C Niederschlag: - Wind: 5,4 kt (max.: 7,7 kt in Böen)
Temperatur (min.): 23,5 °C Luftdruck: 1022 hPa Windrichtung: 78 °
Temperatur (max.): 24,5 °C Luftfeuchtigkeit: 45 % Bewölkung: 1/8

Flugschulen am Flugplatz Nördlingen

Am Flugplatz Nördlingen gibt es leider keine Flugschule.

Benachbarte Flugplätze und Flugschulen

Es gibt 23 weitere Flugplätze in einem Umkreis von 50 km um den Flugplatz Nördlingen.

Jetzt anmelden

Passwort vergessen

Umfrage Archiv

Sendet Ihr ADS-B und/oder FLARM?

Ja
83.2 %
Nein
16.8 %
Stimmen: 197 | Diskussion
Anzeige: Roland Aircraft
Statistik Alle Mitglieder

Aktuell sind 76 Besucher online, davon 1 Mitglied und 75 Gäste.


Mitglieder online:
minimaxi 

Anzeige: ULPower Aero Engines Anzeige: Pocket FMS